createdAt,value
2018-06-08T00:00:01.649Z,93.70
2018-06-08T00:02:29.775Z,93.80
2018-06-08T00:04:58.503Z,93.70
2018-06-08T00:07:25.595Z,93.60
2018-06-08T00:09:52.221Z,93.50
2018-06-08T00:12:20.155Z,93.50
2018-06-08T00:14:47.446Z,93.40
2018-06-08T00:17:14.530Z,93.30
2018-06-08T00:19:41.435Z,93.20
2018-06-08T00:22:08.149Z,93.60
2018-06-08T00:24:36.789Z,93.20
2018-06-08T00:27:04.562Z,93.30
2018-06-08T00:29:32.367Z,93.60
2018-06-08T00:32:00.243Z,93.50
2018-06-08T00:34:26.942Z,93.50
2018-06-08T00:36:53.116Z,93.70
2018-06-08T00:39:20.046Z,94.30
2018-06-08T00:41:47.694Z,94.30
2018-06-08T00:44:16.881Z,94.40
2018-06-08T00:46:43.579Z,94.40
2018-06-08T00:49:10.435Z,94.30
2018-06-08T00:51:37.329Z,94.10
2018-06-08T00:54:04.438Z,94.20
2018-06-08T00:56:31.793Z,94.40
2018-06-08T00:58:59.558Z,94.30
2018-06-08T01:01:26.659Z,94.50
2018-06-08T01:03:53.536Z,94.60
2018-06-08T01:06:21.212Z,94.40
2018-06-08T01:08:47.921Z,94.40
2018-06-08T01:11:14.806Z,94.30
2018-06-08T01:13:41.478Z,94.30
2018-06-08T01:16:07.569Z,94.20
2018-06-08T01:18:34.214Z,94.00
2018-06-08T01:21:01.371Z,93.90
2018-06-08T01:23:28.588Z,93.80
2018-06-08T01:25:55.854Z,93.80
2018-06-08T01:28:23.273Z,93.60
2018-06-08T01:30:51.810Z,93.50
2018-06-08T01:33:18.617Z,93.40
2018-06-08T01:35:46.265Z,93.50
2018-06-08T01:38:13.951Z,93.50
2018-06-08T01:40:41.651Z,93.50
2018-06-08T01:43:09.059Z,93.50
2018-06-08T01:45:35.651Z,93.50
2018-06-08T01:48:02.386Z,93.40
2018-06-08T01:50:29.047Z,93.30
2018-06-08T01:52:57.377Z,93.30
2018-06-08T01:55:25.231Z,93.30
2018-06-08T01:57:51.646Z,93.30
2018-06-08T02:00:18.009Z,93.20
2018-06-08T02:02:45.151Z,93.30
2018-06-08T02:05:11.746Z,93.50
2018-06-08T02:07:38.353Z,93.50
2018-06-08T02:10:05.474Z,93.60
2018-06-08T02:12:33.026Z,93.50
2018-06-08T02:15:00.539Z,93.40
2018-06-08T02:17:26.910Z,93.40
2018-06-08T02:19:53.305Z,93.40
2018-06-08T02:22:19.766Z,93.40
2018-06-08T02:24:47.794Z,93.30
2018-06-08T02:27:15.002Z,93.20
2018-06-08T02:29:41.738Z,93.20
2018-06-08T02:32:09.279Z,93.10
2018-06-08T02:34:35.717Z,93.10
2018-06-08T02:37:03.275Z,93.10
2018-06-08T02:39:30.911Z,93.10
2018-06-08T02:41:58.134Z,93.10
2018-06-08T02:44:24.915Z,93.20
2018-06-08T02:46:53.872Z,93.20
2018-06-08T02:49:20.679Z,93.10
2018-06-08T02:51:47.369Z,93.20
2018-06-08T02:54:14.981Z,93.20
2018-06-08T02:56:41.277Z,93.20
2018-06-08T02:59:07.985Z,93.30
2018-06-08T03:01:34.583Z,93.30
2018-06-08T03:04:00.988Z,93.30
2018-06-08T03:06:28.154Z,93.30
2018-06-08T03:08:54.778Z,93.30
2018-06-08T03:11:21.066Z,93.40
2018-06-08T03:13:47.310Z,93.50
2018-06-08T03:16:13.447Z,94.00
2018-06-08T03:18:39.422Z,94.20
2018-06-08T03:21:05.558Z,94.50
2018-06-08T03:23:32.551Z,94.50
2018-06-08T03:25:59.311Z,94.50
2018-06-08T03:28:26.122Z,94.70
2018-06-08T03:30:52.443Z,94.70
2018-06-08T03:33:18.488Z,94.80
2018-06-08T03:35:44.677Z,94.80
2018-06-08T03:38:11.777Z,94.70
2018-06-08T03:40:39.706Z,94.80
2018-06-08T03:43:06.938Z,95.30
2018-06-08T03:45:33.482Z,95.30
2018-06-08T03:47:59.681Z,95.40
2018-06-08T03:50:25.976Z,95.40
2018-06-08T03:52:51.954Z,95.30
2018-06-08T03:55:17.979Z,95.30
2018-06-08T03:57:44.002Z,95.30
2018-06-08T04:00:09.970Z,95.40
2018-06-08T04:02:35.922Z,95.20
2018-06-08T04:05:01.903Z,95.20
2018-06-08T04:07:27.846Z,95.10
2018-06-08T04:09:53.789Z,95.00
2018-06-08T04:12:19.803Z,95.10
2018-06-08T04:14:47.413Z,95.30
2018-06-08T04:17:13.937Z,95.30
2018-06-08T04:19:41.143Z,96.00
2018-06-08T04:22:07.131Z,96.00
2018-06-08T04:24:33.879Z,96.20
2018-06-08T04:27:00.252Z,96.20
2018-06-08T04:29:26.264Z,96.10
2018-06-08T04:31:53.144Z,96.40
2018-06-08T04:34:19.155Z,96.40
2018-06-08T04:36:45.287Z,96.50
2018-06-08T04:39:11.365Z,96.80
2018-06-08T04:41:37.490Z,96.70
2018-06-08T04:44:03.561Z,96.70
2018-06-08T04:46:29.492Z,96.60
2018-06-08T04:48:55.446Z,96.80
2018-06-08T04:51:22.212Z,96.30
2018-06-08T04:53:48.225Z,96.30
2018-06-08T04:56:15.821Z,96.30
2018-06-08T04:58:42.891Z,96.30
2018-06-08T05:01:09.011Z,96.30
2018-06-08T05:03:36.344Z,96.20
2018-06-08T05:06:02.535Z,96.60
2018-06-08T05:08:28.635Z,96.70
2018-06-08T05:10:56.086Z,96.60
2018-06-08T05:13:22.100Z,96.40
2018-06-08T05:15:48.303Z,96.50
2018-06-08T05:18:14.895Z,96.70
2018-06-08T05:20:41.306Z,96.70
2018-06-08T05:23:07.696Z,96.70
2018-06-08T05:25:33.714Z,96.40
2018-06-08T05:27:59.839Z,96.30
2018-06-08T05:30:26.102Z,96.30
2018-06-08T05:32:52.341Z,96.30
2018-06-08T05:35:18.728Z,96.20
2018-06-08T05:37:46.509Z,96.30
2018-06-08T05:40:13.194Z,96.20
2018-06-08T05:42:39.827Z,95.90
2018-06-08T05:45:05.858Z,96.00
2018-06-08T05:47:32.090Z,95.50
2018-06-08T05:49:58.378Z,95.20
2018-06-08T05:52:24.462Z,95.30
2018-06-08T05:54:50.774Z,95.30
2018-06-08T05:57:17.002Z,95.20
2018-06-08T05:59:43.166Z,95.40
2018-06-08T06:02:09.625Z,95.60
2018-06-08T06:04:35.858Z,95.70
2018-06-08T06:07:02.060Z,95.90
2018-06-08T06:09:28.418Z,96.90
2018-06-08T06:11:56.222Z,96.90
2018-06-08T06:14:23.300Z,96.50
2018-06-08T06:16:51.547Z,96.60
2018-06-08T06:19:19.202Z,96.60
2018-06-08T06:21:46.301Z,96.50
2018-06-08T06:24:12.615Z,96.30
2018-06-08T06:26:39.583Z,96.50
2018-06-08T06:29:06.336Z,96.20
2018-06-08T07:20:49.667Z,97.30
2018-06-08T07:23:19.598Z,98.30
2018-06-08T07:25:49.686Z,97.80
2018-06-08T07:28:18.786Z,97.10
2018-06-08T07:30:48.512Z,97.10
2018-06-08T07:33:17.342Z,96.10
2018-06-08T07:35:43.681Z,95.80
2018-06-08T07:38:10.441Z,97.00
2018-06-08T07:40:38.398Z,96.90
2018-06-08T07:43:04.895Z,96.30
2018-06-08T07:45:30.996Z,95.90
2018-06-08T07:47:58.289Z,96.80
2018-06-08T07:50:24.533Z,96.70
2018-06-08T07:52:50.694Z,96.90
2018-06-08T07:55:16.730Z,96.70
2018-06-08T07:57:42.782Z,97.70
2018-06-08T08:00:09.669Z,96.90
2018-06-08T08:02:35.982Z,96.30
2018-06-08T08:05:02.066Z,96.70
2018-06-08T08:07:28.310Z,97.40
2018-06-08T08:09:55.097Z,96.60
2018-06-08T08:12:21.798Z,96.20
2018-06-08T08:14:47.755Z,96.20
2018-06-08T08:17:14.469Z,97.20
2018-06-08T08:19:40.391Z,97.20
2018-06-08T08:22:06.418Z,96.80
2018-06-08T08:24:32.445Z,97.40
2018-06-08T08:26:58.533Z,96.90
2018-06-08T08:29:24.563Z,95.70
2018-06-08T08:31:50.556Z,95.60
2018-06-08T08:40:20.695Z,94.80
2018-06-08T11:31:36.438Z,81.10
2018-06-08T11:34:24.263Z,78.60
2018-06-08T13:33:03.059Z,65.70
2018-06-08T13:35:39.229Z,63.30
2018-06-08T14:17:57.932Z,63.30
2018-06-08T14:24:09.909Z,63.40
2018-06-08T14:41:50.846Z,61.80
2018-06-08T14:44:21.339Z,60.90
2018-06-08T14:46:54.258Z,61.60
2018-06-08T14:49:24.317Z,64.70
2018-06-08T14:51:53.876Z,60.00
2018-06-08T14:57:17.558Z,60.20
2018-06-08T16:19:14.579Z,61.50
2018-06-08T16:24:44.145Z,60.20
2018-06-08T16:27:10.510Z,59.90
2018-06-08T16:29:37.806Z,59.80
2018-06-08T16:32:04.043Z,60.20
2018-06-08T16:34:29.961Z,60.30
2018-06-08T16:36:55.950Z,61.50
2018-06-08T16:39:21.894Z,61.60
2018-06-08T16:42:00.906Z,59.60
2018-06-08T16:44:26.861Z,60.10
2018-06-08T16:46:52.781Z,59.50
2018-06-08T16:49:18.698Z,60.10
2018-06-08T16:51:44.581Z,60.90
2018-06-08T16:54:10.497Z,60.30
2018-06-08T16:56:36.385Z,62.30
2018-06-08T16:59:02.315Z,61.60
2018-06-08T17:01:28.969Z,60.80
2018-06-08T17:03:54.938Z,60.80
2018-06-08T17:06:20.841Z,57.70
2018-06-08T17:08:46.755Z,56.00
2018-06-08T17:11:12.664Z,55.60
2018-06-08T17:13:38.605Z,56.30
2018-06-08T17:16:04.545Z,57.00
2018-06-08T17:18:30.431Z,58.50
2018-06-08T17:20:56.359Z,58.20
2018-06-08T17:23:22.276Z,59.30
2018-06-08T17:25:48.239Z,59.40
2018-06-08T17:28:14.155Z,61.90
2018-06-08T17:30:40.076Z,62.40
2018-06-08T17:33:28.102Z,64.00
2018-06-08T17:39:00.677Z,70.60
2018-06-08T17:41:32.442Z,74.90
2018-06-08T18:51:19.366Z,84.30
2018-06-08T18:53:54.071Z,85.60
2018-06-08T18:56:31.777Z,86.40
2018-06-08T19:08:39.303Z,89.90
